createdAt,value
2022-09-20T00:14:53.306Z,10.10
2022-09-20T00:31:43.251Z,9.30
2022-09-20T00:48:34.850Z,9.10
2022-09-20T01:05:23.263Z,9.90
2022-09-20T01:22:22.709Z,10.00
2022-09-20T01:39:20.156Z,9.20
2022-09-20T01:56:39.879Z,9.60
2022-09-20T02:13:35.193Z,10.00
2022-09-20T02:30:36.713Z,10.30
2022-09-20T02:47:34.582Z,10.10
2022-09-20T03:04:49.235Z,9.90
2022-09-20T03:39:05.374Z,9.30
2022-09-20T03:56:19.074Z,7.50
2022-09-20T04:13:27.335Z,7.60
2022-09-20T04:30:21.059Z,6.70
2022-09-20T04:47:52.007Z,6.50
2022-09-20T05:05:14.863Z,5.80
2022-09-20T05:22:27.337Z,5.30
2022-09-20T05:39:30.271Z,5.20
2022-09-20T05:56:28.430Z,6.30
2022-09-20T06:14:00.740Z,5.90
2022-09-20T06:30:52.123Z,6.70
2022-09-20T06:47:40.673Z,7.80
2022-09-20T07:04:29.894Z,8.70
2022-09-20T07:21:19.824Z,9.50
2022-09-20T07:38:08.929Z,9.30
2022-09-20T07:54:57.947Z,8.40
2022-09-20T08:11:46.612Z,7.70
2022-09-20T08:28:35.678Z,7.10
2022-09-20T08:45:35.605Z,6.90
2022-09-20T09:02:26.842Z,9.40
2022-09-20T09:19:37.008Z,9.50
2022-09-20T09:36:27.746Z,9.50
2022-09-20T09:53:18.394Z,9.20
2022-09-20T10:10:22.380Z,9.20
2022-09-20T10:27:35.077Z,8.50
2022-09-20T10:44:41.593Z,7.90
2022-09-20T11:01:39.898Z,6.00
2022-09-20T11:18:36.011Z,6.40
2022-09-20T11:35:35.999Z,3.90
2022-09-20T11:52:45.216Z,4.60
2022-09-20T12:09:39.055Z,4.40
2022-09-20T12:43:37.444Z,3.60
2022-09-20T13:00:39.212Z,3.20
2022-09-20T13:17:32.089Z,2.20
2022-09-20T13:34:27.930Z,2.50
2022-09-20T13:51:27.911Z,2.10
2022-09-20T14:08:23.159Z,2.30
2022-09-20T14:25:27.498Z,1.90
2022-09-20T14:42:25.762Z,2.80
2022-09-20T14:59:30.785Z,3.70
2022-09-20T15:16:22.133Z,1.60
2022-09-20T15:33:12.202Z,1.40
2022-09-20T15:50:00.470Z,1.10
2022-09-20T16:06:51.295Z,1.30
2022-09-20T16:23:39.958Z,1.30
2022-09-20T16:40:28.229Z,1.50
2022-09-20T16:57:16.401Z,1.50
2022-09-20T17:14:07.905Z,1.90
2022-09-20T17:31:01.212Z,2.00
2022-09-20T17:47:52.010Z,3.10
2022-09-20T18:04:42.750Z,5.80
2022-09-20T18:21:35.764Z,3.30
2022-09-20T18:38:25.913Z,3.30
2022-09-20T18:55:15.982Z,4.10
2022-09-20T19:12:09.092Z,6.50
2022-09-20T19:29:02.438Z,4.90
2022-09-20T19:45:58.784Z,4.50
2022-09-20T20:02:51.509Z,3.70
2022-09-20T20:19:56.314Z,4.40
2022-09-20T20:53:38.905Z,4.50
2022-09-20T21:10:29.135Z,4.30
2022-09-20T21:27:21.064Z,3.90
2022-09-20T21:44:12.489Z,4.00
2022-09-20T22:01:02.843Z,4.40
2022-09-20T22:17:54.742Z,4.60
2022-09-20T22:34:43.138Z,4.60
2022-09-20T22:51:35.038Z,4.50
2022-09-20T23:08:25.394Z,4.00
2022-09-20T23:25:16.248Z,4.20
2022-09-20T23:42:05.575Z,4.20
2022-09-20T23:58:54.364Z,4.30
